createdAt,value
2023-02-11T00:01:18.998Z,-5.40
2023-02-11T00:03:45.735Z,-5.40
2023-02-11T00:06:12.572Z,-5.40
2023-02-11T00:08:39.711Z,-5.40
2023-02-11T00:11:06.558Z,-5.40
2023-02-11T00:13:33.467Z,-5.40
2023-02-11T00:16:00.144Z,-5.40
2023-02-11T00:18:27.614Z,-5.40
2023-02-11T00:20:54.272Z,-5.40
2023-02-11T00:23:20.993Z,-5.40
2023-02-11T00:25:47.660Z,-5.40
2023-02-11T00:28:15.730Z,-5.40
2023-02-11T00:30:42.560Z,-5.40
2023-02-11T00:33:09.325Z,-5.30
2023-02-11T00:35:38.284Z,-5.30
2023-02-11T00:38:05.571Z,-5.20
2023-02-11T00:40:32.257Z,-5.10
2023-02-11T00:42:58.952Z,-5.00
2023-02-11T00:45:25.719Z,-4.90
2023-02-11T00:47:52.520Z,-4.70
2023-02-11T00:50:19.294Z,-4.60
2023-02-11T00:52:45.997Z,-4.40
2023-02-11T00:55:12.846Z,-4.20
2023-02-11T00:57:39.538Z,-4.00
2023-02-11T01:00:07.671Z,-4.00
2023-02-11T01:02:34.611Z,-3.80
2023-02-11T01:05:01.513Z,-3.80
2023-02-11T01:07:29.142Z,-3.70
2023-02-11T01:09:55.916Z,-3.70
2023-02-11T01:12:23.577Z,-3.70
2023-02-11T01:14:50.381Z,-3.70
2023-02-11T01:17:17.062Z,-3.60
2023-02-11T01:19:43.750Z,-3.60
2023-02-11T01:22:10.424Z,-3.50
2023-02-11T01:24:37.142Z,-3.50
2023-02-11T01:27:03.990Z,-3.40
2023-02-11T01:29:30.730Z,-3.40
2023-02-11T01:31:57.414Z,-3.40
2023-02-11T01:34:24.156Z,-3.40
2023-02-11T01:36:50.858Z,-3.50
2023-02-11T01:39:17.610Z,-3.40
2023-02-11T01:41:44.319Z,-3.40
2023-02-11T01:44:29.047Z,-3.50
2023-02-11T01:46:56.124Z,-3.40
2023-02-11T01:49:30.428Z,-3.40
2023-02-11T01:52:15.640Z,-3.40
2023-02-11T01:55:04.197Z,-3.40
2023-02-11T01:57:34.127Z,-3.40
2023-02-11T02:00:09.797Z,-3.40
2023-02-11T02:02:52.665Z,-3.40
2023-02-11T02:05:34.573Z,-3.40
2023-02-11T02:08:18.050Z,-3.40
2023-02-11T02:11:09.659Z,-3.40
2023-02-11T02:13:36.509Z,-3.30
2023-02-11T02:16:12.045Z,-3.30
2023-02-11T02:18:59.849Z,-3.30
2023-02-11T02:21:57.523Z,-3.20
2023-02-11T02:24:48.297Z,-3.20
2023-02-11T02:27:36.256Z,-3.10
2023-02-11T02:30:42.031Z,-3.10
2023-02-11T02:33:33.342Z,-3.10
2023-02-11T02:36:23.077Z,-3.00
2023-02-11T02:38:59.441Z,-3.00
2023-02-11T02:41:32.634Z,-3.00
2023-02-11T02:43:59.970Z,-2.90
2023-02-11T02:46:30.037Z,-2.90
2023-02-11T02:48:57.898Z,-2.90
2023-02-11T02:51:43.071Z,-2.80
2023-02-11T02:54:29.376Z,-2.80
2023-02-11T02:57:16.726Z,-2.70
2023-02-11T03:00:07.988Z,-2.70
2023-02-11T03:02:50.881Z,-2.70
2023-02-11T03:05:38.581Z,-2.60
2023-02-11T03:08:11.019Z,-2.60
2023-02-11T03:10:43.077Z,-2.50
2023-02-11T03:13:10.467Z,-2.50
2023-02-11T03:15:41.277Z,-2.50
2023-02-11T03:18:11.585Z,-2.40
2023-02-11T03:20:44.308Z,-2.40
2023-02-11T03:23:25.032Z,-2.30
2023-02-11T03:26:36.286Z,-2.30
2023-02-11T03:29:15.150Z,-2.20
2023-02-11T03:31:47.652Z,-2.20
2023-02-11T03:34:22.920Z,-2.20
2023-02-11T03:37:04.967Z,-2.20
2023-02-11T03:39:38.098Z,-2.20
2023-02-11T03:42:07.051Z,-2.10
2023-02-11T03:44:40.020Z,-2.10
2023-02-11T03:47:09.375Z,-2.00
2023-02-11T03:49:39.279Z,-2.00
2023-02-11T03:52:08.293Z,-1.90
2023-02-11T03:54:35.837Z,-1.90
2023-02-11T03:57:03.106Z,-1.90
2023-02-11T03:59:30.277Z,-1.80
2023-02-11T04:01:59.457Z,-1.80
2023-02-11T04:04:26.226Z,-1.80
2023-02-11T04:06:53.147Z,-1.70
2023-02-11T04:09:19.941Z,-1.70
2023-02-11T04:11:46.651Z,-1.70
2023-02-11T04:14:13.437Z,-1.70
2023-02-11T04:16:40.187Z,-1.70
2023-02-11T04:19:06.978Z,-1.60
2023-02-11T04:21:33.709Z,-1.60
2023-02-11T04:24:00.429Z,-1.60
2023-02-11T04:26:27.244Z,-1.60
2023-02-11T04:28:53.982Z,-1.60
2023-02-11T04:31:20.889Z,-1.70
2023-02-11T04:33:47.659Z,-1.60
2023-02-11T04:36:14.390Z,-1.60
2023-02-11T04:38:41.146Z,-1.60
2023-02-11T04:41:07.883Z,-1.60
2023-02-11T04:43:34.588Z,-1.50
2023-02-11T04:46:02.077Z,-1.50
2023-02-11T04:48:28.905Z,-1.50
2023-02-11T04:50:55.609Z,-1.40
2023-02-11T04:53:22.426Z,-1.40
2023-02-11T04:55:50.934Z,-1.30
2023-02-11T04:58:18.967Z,-1.30
2023-02-11T05:00:46.018Z,-1.30
2023-02-11T05:03:13.206Z,-1.20
2023-02-11T05:05:41.498Z,-1.20
2023-02-11T05:08:09.895Z,-1.20
2023-02-11T05:10:37.548Z,-1.10
2023-02-11T05:13:04.658Z,-1.20
2023-02-11T05:15:31.735Z,-1.30
2023-02-11T05:17:58.603Z,-1.40
2023-02-11T05:20:25.407Z,-1.50
2023-02-11T05:22:52.612Z,-1.60
2023-02-11T05:25:20.394Z,-1.80
2023-02-11T05:27:47.252Z,-1.80
2023-02-11T05:30:14.160Z,-1.90
2023-02-11T05:32:40.974Z,-2.10
2023-02-11T05:35:08.788Z,-2.20
2023-02-11T05:37:35.703Z,-2.20
2023-02-11T05:40:02.446Z,-2.30
2023-02-11T05:42:29.254Z,-2.30
2023-02-11T05:44:55.983Z,-2.40
2023-02-11T05:47:22.729Z,-2.40
2023-02-11T05:49:49.503Z,-2.40
2023-02-11T05:52:16.252Z,-2.50
2023-02-11T05:54:43.045Z,-2.50
2023-02-11T05:57:09.792Z,-2.60
2023-02-11T05:59:36.613Z,-2.60
2023-02-11T06:02:03.369Z,-2.70
2023-02-11T06:04:30.423Z,-2.70
2023-02-11T06:06:57.220Z,-2.80
2023-02-11T06:09:24.047Z,-2.80
2023-02-11T06:11:50.770Z,-2.90
2023-02-11T06:14:17.575Z,-2.80
2023-02-11T06:16:44.421Z,-2.80
2023-02-11T06:19:12.617Z,-2.70
2023-02-11T06:21:44.140Z,-2.70
2023-02-11T06:24:12.086Z,-2.60
2023-02-11T06:26:38.871Z,-2.60
2023-02-11T06:29:05.646Z,-2.60
2023-02-11T06:31:32.540Z,-2.50
2023-02-11T06:33:59.392Z,-2.40
2023-02-11T06:36:26.255Z,-2.50
2023-02-11T06:38:53.265Z,-2.50
2023-02-11T06:41:20.742Z,-2.50
2023-02-11T06:43:48.268Z,-2.50
2023-02-11T06:46:15.609Z,-2.50
2023-02-11T06:48:44.722Z,-2.50
2023-02-11T06:51:13.395Z,-2.50
2023-02-11T06:53:43.857Z,-2.40
2023-02-11T06:56:13.751Z,-2.30
2023-02-11T06:58:40.934Z,-2.20
2023-02-11T07:01:09.723Z,-2.10
2023-02-11T07:03:38.891Z,-2.00
2023-02-11T07:06:07.780Z,-1.90
2023-02-11T07:08:36.078Z,-1.70
2023-02-11T07:11:16.580Z,-1.60
2023-02-11T07:13:43.626Z,-1.40
2023-02-11T07:16:13.874Z,-1.30
2023-02-11T07:18:41.263Z,-1.20
2023-02-11T07:21:10.493Z,-1.00
2023-02-11T07:23:38.181Z,-0.80
2023-02-11T07:26:07.319Z,-0.60
2023-02-11T07:28:35.368Z,-0.40
2023-02-11T07:31:14.352Z,-0.20
2023-02-11T07:33:41.565Z,-0.10
2023-02-11T07:36:10.296Z,0.10
2023-02-11T07:38:37.454Z,0.20
2023-02-11T07:41:10.062Z,0.20
2023-02-11T07:43:37.741Z,0.30
2023-02-11T07:46:09.140Z,0.40
2023-02-11T07:48:36.008Z,0.40
2023-02-11T07:51:29.234Z,0.50
2023-02-11T07:53:57.789Z,0.60
2023-02-11T07:56:24.554Z,0.70
2023-02-11T07:58:51.754Z,0.80
2023-02-11T08:01:22.585Z,0.90
2023-02-11T08:03:49.664Z,1.00
2023-02-11T08:06:18.598Z,1.20
2023-02-11T08:08:45.845Z,1.20
2023-02-11T08:11:27.611Z,1.30
2023-02-11T08:13:56.102Z,1.40
2023-02-11T08:16:32.654Z,1.50
2023-02-11T08:19:02.470Z,1.60
2023-02-11T08:21:29.775Z,1.60
2023-02-11T08:23:56.930Z,1.70
2023-02-11T08:26:26.793Z,1.70
2023-02-11T08:28:55.367Z,1.70
2023-02-11T08:31:25.105Z,1.90
2023-02-11T08:33:53.361Z,2.10
2023-02-11T08:36:23.251Z,2.30
2023-02-11T08:38:50.228Z,2.60
2023-02-11T08:41:18.136Z,2.70
2023-02-11T08:43:45.650Z,2.80
2023-02-11T08:46:16.851Z,2.70
2023-02-11T08:48:44.079Z,2.70
2023-02-11T08:51:17.984Z,2.80
2023-02-11T08:53:45.534Z,2.80
2023-02-11T08:56:13.738Z,2.80
2023-02-11T08:58:41.089Z,2.80
2023-02-11T09:01:22.638Z,2.70
2023-02-11T09:03:49.728Z,2.80
2023-02-11T09:06:18.585Z,2.90
2023-02-11T09:08:52.366Z,2.90
2023-02-11T09:11:21.304Z,3.00
2023-02-11T09:13:48.335Z,3.00
2023-02-11T09:16:20.990Z,3.10
2023-02-11T09:18:48.400Z,3.10
2023-02-11T09:21:17.487Z,3.20
2023-02-11T09:23:44.908Z,3.30
2023-02-11T09:26:16.105Z,3.50
2023-02-11T09:28:43.135Z,3.90
2023-02-11T09:31:14.701Z,4.10
2023-02-11T09:33:47.725Z,4.50
2023-02-11T09:36:17.487Z,4.80
2023-02-11T09:38:44.779Z,4.90
2023-02-11T09:41:27.525Z,5.10
2023-02-11T09:43:58.224Z,5.10
2023-02-11T09:46:27.548Z,5.10
2023-02-11T09:48:56.269Z,5.10
2023-02-11T09:51:48.304Z,5.20
2023-02-11T09:54:34.086Z,5.40
2023-02-11T09:57:00.949Z,5.60
2023-02-11T09:59:27.878Z,5.50
2023-02-11T10:02:01.101Z,5.50
2023-02-11T10:04:38.942Z,5.30
2023-02-11T10:07:20.442Z,5.20
2023-02-11T10:10:17.469Z,5.20
2023-02-11T10:13:14.783Z,5.10
2023-02-11T10:15:58.901Z,5.10
2023-02-11T10:18:34.354Z,5.10
2023-02-11T10:21:20.072Z,5.10
2023-02-11T10:23:51.780Z,5.20
2023-02-11T10:26:19.665Z,5.30
2023-02-11T10:28:49.664Z,5.40
2023-02-11T10:31:38.983Z,5.60
2023-02-11T10:34:09.780Z,5.70
2023-02-11T10:36:40.023Z,5.80
2023-02-11T10:39:13.391Z,6.00
2023-02-11T10:41:44.860Z,6.10
2023-02-11T10:44:29.392Z,6.10
2023-02-11T10:46:57.514Z,6.10
2023-02-11T10:49:42.356Z,6.10
2023-02-11T10:52:21.278Z,6.00
2023-02-11T10:55:16.057Z,6.20
2023-02-11T10:57:58.937Z,6.30
2023-02-11T11:00:42.141Z,6.30
2023-02-11T11:03:20.853Z,6.20
2023-02-11T11:05:57.399Z,6.10
2023-02-11T11:08:40.826Z,6.10
2023-02-11T11:11:10.721Z,6.00
2023-02-11T11:13:40.140Z,5.90
2023-02-11T11:16:12.997Z,5.60
2023-02-11T11:18:45.488Z,5.50
2023-02-11T11:21:20.225Z,5.60
2023-02-11T11:23:58.939Z,5.50
2023-02-11T11:26:40.163Z,5.40
2023-02-11T11:29:16.186Z,5.40
2023-02-11T11:31:49.326Z,5.40
2023-02-11T11:34:37.249Z,5.40
2023-02-11T11:37:33.034Z,5.50
2023-02-11T11:40:07.847Z,5.40
2023-02-11T11:42:37.131Z,5.40
2023-02-11T11:45:26.750Z,5.50
2023-02-11T11:48:11.271Z,5.50
2023-02-11T11:50:57.388Z,5.60
2023-02-11T11:53:42.975Z,5.70
2023-02-11T11:56:24.355Z,5.80
2023-02-11T11:58:51.636Z,5.90
2023-02-11T12:01:30.512Z,6.00
2023-02-11T12:04:21.669Z,6.00
2023-02-11T12:07:06.963Z,5.90
2023-02-11T12:09:52.616Z,5.90
2023-02-11T12:12:54.392Z,5.90
2023-02-11T12:15:26.961Z,5.90
2023-02-11T12:18:29.655Z,5.90
2023-02-11T12:21:15.059Z,5.90
2023-02-11T12:23:58.526Z,5.80
2023-02-11T12:26:40.400Z,5.90
2023-02-11T12:29:17.484Z,5.90
2023-02-11T12:32:02.805Z,5.90
2023-02-11T12:34:50.881Z,5.90
2023-02-11T12:37:23.329Z,5.80
2023-02-11T12:40:10.144Z,5.70
2023-02-11T12:43:15.992Z,5.70
2023-02-11T12:46:13.603Z,5.70
2023-02-11T12:49:13.826Z,5.70
2023-02-11T12:52:03.829Z,5.60
2023-02-11T12:54:59.390Z,5.50
2023-02-11T12:57:30.083Z,5.50
2023-02-11T13:00:15.212Z,5.40
2023-02-11T13:02:56.087Z,5.40
2023-02-11T13:05:39.391Z,5.40
2023-02-11T13:08:30.728Z,5.30
2023-02-11T13:11:23.133Z,5.30
2023-02-11T13:14:00.613Z,5.40
2023-02-11T13:16:36.856Z,5.50
2023-02-11T13:19:14.543Z,5.70
2023-02-11T13:21:44.079Z,5.70
2023-02-11T13:24:19.484Z,5.80
2023-02-11T13:26:49.202Z,5.80
2023-02-11T13:29:47.485Z,6.00
2023-02-11T13:32:15.766Z,5.90
2023-02-11T13:34:42.446Z,6.00
2023-02-11T13:37:37.213Z,6.00
2023-02-11T13:40:20.355Z,6.00
2023-02-11T13:42:51.736Z,6.00
2023-02-11T13:45:33.896Z,6.10
2023-02-11T13:48:05.127Z,6.20
2023-02-11T13:50:39.467Z,6.40
2023-02-11T13:53:08.784Z,6.50
2023-02-11T13:55:35.941Z,6.50
2023-02-11T13:58:08.701Z,6.50
2023-02-11T14:00:35.433Z,6.50
2023-02-11T14:04:01.857Z,6.40
2023-02-11T14:06:47.619Z,6.30
2023-02-11T14:09:14.298Z,6.40
2023-02-11T14:11:41.544Z,6.40
2023-02-11T14:14:23.995Z,6.50
2023-02-11T14:17:11.001Z,6.40
2023-02-11T14:19:46.349Z,6.40
2023-02-11T14:22:28.725Z,6.50
2023-02-11T14:24:56.890Z,6.50
2023-02-11T14:27:42.093Z,6.60
2023-02-11T14:30:21.193Z,6.60
2023-02-11T14:33:09.111Z,6.50
2023-02-11T14:36:12.144Z,6.30
2023-02-11T14:38:52.372Z,6.20
2023-02-11T14:41:22.257Z,6.20
2023-02-11T14:43:59.597Z,6.10
2023-02-11T14:46:35.906Z,6.10
2023-02-11T14:49:05.353Z,6.00
2023-02-11T14:51:36.518Z,6.00
2023-02-11T14:54:17.395Z,6.00
2023-02-11T14:56:46.708Z,6.00
2023-02-11T14:59:22.149Z,5.90
2023-02-11T15:01:54.858Z,5.90
2023-02-11T15:04:27.874Z,5.90
2023-02-11T15:06:57.469Z,5.80
2023-02-11T15:09:29.417Z,5.80
2023-02-11T15:11:57.754Z,5.70
2023-02-11T15:14:28.609Z,5.70
2023-02-11T15:16:58.848Z,5.70
2023-02-11T15:19:42.311Z,5.70
2023-02-11T15:22:20.278Z,5.60
2023-02-11T15:25:10.604Z,5.60
2023-02-11T15:27:42.626Z,5.50
2023-02-11T15:30:28.997Z,5.50
2023-02-11T15:33:03.216Z,5.50
2023-02-11T15:35:35.053Z,5.40
2023-02-11T15:38:01.778Z,5.40
2023-02-11T15:40:34.806Z,5.30
2023-02-11T15:43:03.797Z,5.30
2023-02-11T15:45:33.160Z,5.30
2023-02-11T15:48:09.177Z,5.30
2023-02-11T15:50:37.454Z,5.30
2023-02-11T15:53:30.374Z,5.30
2023-02-11T15:56:17.302Z,5.30
2023-02-11T15:58:47.592Z,5.30
2023-02-11T16:01:14.594Z,5.20
2023-02-11T16:03:43.074Z,5.10
2023-02-11T16:06:23.833Z,5.10
2023-02-11T16:09:12.841Z,5.10
2023-02-11T16:11:48.803Z,5.10
2023-02-11T16:14:36.998Z,5.00
2023-02-11T16:17:12.949Z,4.90
2023-02-11T16:19:48.740Z,4.90
2023-02-11T16:22:30.427Z,4.90
2023-02-11T16:24:59.395Z,4.80
2023-02-11T16:27:39.686Z,4.80
2023-02-11T16:30:21.104Z,4.80
2023-02-11T16:32:47.827Z,4.80
2023-02-11T16:35:14.548Z,4.80
2023-02-11T16:37:41.263Z,4.80
2023-02-11T16:40:09.364Z,4.70
2023-02-11T16:42:36.055Z,4.70
2023-02-11T16:45:03.344Z,4.70
2023-02-11T16:47:31.212Z,4.70
2023-02-11T16:49:59.298Z,4.80
2023-02-11T16:52:26.388Z,4.70
2023-02-11T16:54:53.757Z,4.70
2023-02-11T16:57:27.011Z,4.70
2023-02-11T16:59:55.684Z,4.70
2023-02-11T17:02:27.265Z,4.70
2023-02-11T17:04:55.511Z,4.70
2023-02-11T17:07:22.685Z,4.70
2023-02-11T17:09:49.568Z,4.70
2023-02-11T17:12:16.278Z,4.70
2023-02-11T17:14:44.316Z,4.70
2023-02-11T17:17:11.757Z,4.70
2023-02-11T17:19:39.203Z,4.70
2023-02-11T17:22:06.452Z,4.70
2023-02-11T17:24:33.247Z,4.70
2023-02-11T17:26:59.943Z,4.60
2023-02-11T17:29:27.136Z,4.70
2023-02-11T17:31:54.196Z,4.70
2023-02-11T17:34:22.478Z,4.70
2023-02-11T17:36:49.373Z,4.70
2023-02-11T17:39:16.554Z,4.70
2023-02-11T17:41:43.443Z,4.70
2023-02-11T17:44:12.517Z,4.70
2023-02-11T17:46:39.369Z,4.60
2023-02-11T17:49:06.108Z,4.60
2023-02-11T17:51:35.600Z,4.60
2023-02-11T17:54:13.013Z,4.50
2023-02-11T17:56:39.893Z,4.50
2023-02-11T17:59:08.626Z,4.40
2023-02-11T18:01:37.236Z,4.40
2023-02-11T18:04:04.821Z,4.40
2023-02-11T18:06:33.797Z,4.30
2023-02-11T18:09:02.413Z,4.30
2023-02-11T18:11:30.904Z,4.30
2023-02-11T18:14:01.943Z,4.30
2023-02-11T18:16:30.445Z,4.30
2023-02-11T18:18:58.748Z,4.30
2023-02-11T18:21:25.805Z,4.30
2023-02-11T18:23:52.822Z,4.30
2023-02-11T18:26:21.548Z,4.30
2023-02-11T18:28:48.377Z,4.30
2023-02-11T18:31:15.334Z,4.40
2023-02-11T18:33:42.728Z,4.40
2023-02-11T18:36:12.902Z,4.40
2023-02-11T18:38:40.416Z,4.50
2023-02-11T18:41:07.497Z,4.50
2023-02-11T18:43:34.676Z,4.60
2023-02-11T18:46:06.458Z,4.60
2023-02-11T18:48:33.357Z,4.60
2023-02-11T18:51:00.124Z,4.60
2023-02-11T18:53:26.951Z,4.60
2023-02-11T18:55:54.386Z,4.60
2023-02-11T18:58:21.549Z,4.60
2023-02-11T19:00:49.488Z,4.60
2023-02-11T19:03:16.452Z,4.60
2023-02-11T19:05:48.192Z,4.60
2023-02-11T19:08:15.632Z,4.60
2023-02-11T19:10:44.198Z,4.60
2023-02-11T19:13:11.580Z,4.50
2023-02-11T19:15:46.009Z,4.50
2023-02-11T19:18:14.975Z,4.50
2023-02-11T19:20:43.454Z,4.50
2023-02-11T19:23:11.010Z,4.40
2023-02-11T19:25:44.324Z,4.40
2023-02-11T19:28:11.088Z,4.40
2023-02-11T19:30:38.000Z,4.40
2023-02-11T19:33:04.943Z,4.40
2023-02-11T19:35:35.294Z,4.40
2023-02-11T19:38:03.389Z,4.40
2023-02-11T19:40:30.430Z,4.40
2023-02-11T19:42:57.148Z,4.40
2023-02-11T19:45:23.950Z,4.40
2023-02-11T19:47:55.728Z,4.40
2023-02-11T19:50:23.125Z,4.40
2023-02-11T19:52:49.894Z,4.40
2023-02-11T19:55:16.648Z,4.30
2023-02-11T19:57:43.557Z,4.30
2023-02-11T20:00:11.316Z,4.30
2023-02-11T20:02:39.542Z,4.30
2023-02-11T20:05:06.862Z,4.20
2023-02-11T20:07:33.770Z,4.20
2023-02-11T20:10:00.585Z,4.20
2023-02-11T20:12:27.402Z,4.10
2023-02-11T20:14:54.124Z,4.10
2023-02-11T20:17:20.909Z,4.10
2023-02-11T20:19:47.610Z,4.10
2023-02-11T20:22:14.316Z,4.10
2023-02-11T20:24:41.121Z,4.10
2023-02-11T20:27:08.516Z,4.00
2023-02-11T20:29:35.395Z,4.00
2023-02-11T20:32:03.422Z,4.00
2023-02-11T20:34:30.225Z,3.90
2023-02-11T20:36:57.113Z,3.90
2023-02-11T20:39:25.569Z,4.00
2023-02-11T20:41:53.873Z,3.90
2023-02-11T20:44:24.411Z,3.90
2023-02-11T20:46:52.405Z,3.90
2023-02-11T20:49:21.791Z,3.90
2023-02-11T20:51:49.401Z,3.90
2023-02-11T20:54:18.346Z,3.90
2023-02-11T20:56:47.937Z,3.90
2023-02-11T20:59:16.624Z,3.90
2023-02-11T21:01:46.143Z,3.90
2023-02-11T21:04:32.599Z,3.90
2023-02-11T21:07:01.462Z,3.90
2023-02-11T21:09:34.168Z,3.90
2023-02-11T21:12:01.537Z,3.80
2023-02-11T21:14:29.029Z,3.90
2023-02-11T21:16:58.981Z,3.90
2023-02-11T21:19:26.064Z,3.90
2023-02-11T21:21:53.048Z,3.90
2023-02-11T21:24:19.889Z,3.90
2023-02-11T21:26:46.722Z,4.00
2023-02-11T21:29:13.469Z,3.90
2023-02-11T21:31:40.425Z,3.90
2023-02-11T21:34:07.840Z,3.90
2023-02-11T21:36:34.642Z,3.90
2023-02-11T21:39:03.716Z,3.90
2023-02-11T21:41:30.430Z,3.90
2023-02-11T21:43:57.269Z,3.80
2023-02-11T21:46:24.092Z,3.80
2023-02-11T21:48:51.512Z,3.80
2023-02-11T21:51:22.635Z,3.80
2023-02-11T21:53:57.191Z,3.80
2023-02-11T21:56:26.388Z,3.70
2023-02-11T21:58:54.551Z,3.70
2023-02-11T22:01:24.082Z,3.70
2023-02-11T22:03:51.031Z,3.80
2023-02-11T22:06:26.061Z,3.80
2023-02-11T22:08:54.084Z,3.80
2023-02-11T22:11:21.173Z,3.80
2023-02-11T22:13:48.074Z,3.70
2023-02-11T22:16:16.673Z,3.70
2023-02-11T22:18:46.456Z,4.20
2023-02-11T22:21:18.485Z,3.70
2023-02-11T22:23:45.838Z,3.70
2023-02-11T22:26:18.304Z,3.70
2023-02-11T22:28:45.206Z,3.70
2023-02-11T22:31:20.863Z,3.70
2023-02-11T22:33:48.193Z,3.60
2023-02-11T22:36:18.193Z,3.50
2023-02-11T22:38:44.971Z,3.40
2023-02-11T22:41:12.334Z,3.20
2023-02-11T22:43:39.470Z,3.10
2023-02-11T22:46:07.812Z,3.00
2023-02-11T22:48:35.566Z,2.90
2023-02-11T22:51:13.924Z,2.70
2023-02-11T22:53:40.994Z,2.60
2023-02-11T22:56:15.385Z,2.60
2023-02-11T22:58:43.115Z,2.60
2023-02-11T23:01:10.525Z,2.50
2023-02-11T23:03:37.243Z,2.50
2023-02-11T23:06:04.258Z,2.50
2023-02-11T23:08:31.802Z,2.40
2023-02-11T23:11:10.101Z,2.20
2023-02-11T23:13:38.998Z,2.10
2023-02-11T23:16:08.290Z,1.90
2023-02-11T23:18:38.678Z,1.80
2023-02-11T23:21:12.682Z,1.70
2023-02-11T23:23:39.853Z,1.60
2023-02-11T23:26:09.941Z,1.40
2023-02-11T23:28:36.760Z,1.40
2023-02-11T23:31:13.869Z,1.30
2023-02-11T23:33:40.600Z,1.30
2023-02-11T23:36:07.768Z,1.30
2023-02-11T23:38:34.515Z,1.20
2023-02-11T23:41:01.227Z,1.20
2023-02-11T23:43:27.905Z,1.20
2023-02-11T23:45:54.873Z,1.20
2023-02-11T23:48:21.780Z,1.20
2023-02-11T23:50:48.496Z,1.20
2023-02-11T23:53:15.445Z,1.20
2023-02-11T23:55:46.585Z,1.10
2023-02-11T23:58:14.465Z,1.00
